createdAt,value
2018-04-23T00:02:08.260Z,46.80
2018-04-23T00:04:36.515Z,46.80
2018-04-23T00:07:05.524Z,47.50
2018-04-23T00:09:33.784Z,46.60
2018-04-23T00:12:02.821Z,47.20
2018-04-23T00:14:31.051Z,47.20
2018-04-23T00:16:59.320Z,47.00
2018-04-23T00:19:28.321Z,47.50
2018-04-23T00:21:57.338Z,47.40
2018-04-23T00:24:25.608Z,47.30
2018-04-23T00:26:53.874Z,47.40
2018-04-23T00:29:22.913Z,47.40
2018-04-23T00:31:51.205Z,47.30
2018-04-23T00:34:19.481Z,47.40
2018-04-23T00:36:47.734Z,47.50
2018-04-23T00:39:15.999Z,47.60
2018-04-23T00:41:44.251Z,47.80
2018-04-23T00:44:13.361Z,48.00
2018-04-23T00:46:41.554Z,48.00
2018-04-23T00:49:09.805Z,48.40
2018-04-23T00:51:38.069Z,48.10
2018-04-23T00:54:07.079Z,47.80
2018-04-23T00:56:35.352Z,47.80
2018-04-23T00:59:03.599Z,48.00
2018-04-23T01:01:32.630Z,48.00
2018-04-23T01:04:00.882Z,48.00
2018-04-23T01:06:29.906Z,48.30
2018-04-23T01:08:58.159Z,48.30
2018-04-23T01:11:26.422Z,48.50
2018-04-23T01:13:55.433Z,48.40
2018-04-23T01:16:23.699Z,48.30
2018-04-23T01:18:52.723Z,48.40
2018-04-23T01:21:20.949Z,48.40
2018-04-23T01:23:49.211Z,48.40
2018-04-23T01:26:18.394Z,48.50
2018-04-23T01:28:46.670Z,48.20
2018-04-23T01:31:15.702Z,49.10
2018-04-23T01:33:44.724Z,48.20
2018-04-23T01:36:12.979Z,48.20
2018-04-23T01:38:41.277Z,48.20
2018-04-23T01:41:09.518Z,48.40
2018-04-23T01:43:37.771Z,48.30
2018-04-23T01:46:06.040Z,48.90
2018-04-23T01:48:34.278Z,48.10
2018-04-23T01:51:02.552Z,48.60
2018-04-23T01:53:30.783Z,48.50
2018-04-23T01:55:59.043Z,48.40
2018-04-23T01:58:27.289Z,48.50
2018-04-23T02:00:55.585Z,48.50
2018-04-23T02:03:23.847Z,48.50
2018-04-23T02:05:52.109Z,48.60
2018-04-23T02:08:20.369Z,49.00
2018-04-23T02:10:49.416Z,49.20
2018-04-23T02:13:17.672Z,49.20
2018-04-23T02:15:45.935Z,49.70
2018-04-23T02:18:14.169Z,50.00
2018-04-23T02:20:42.426Z,49.90
2018-04-23T02:23:10.684Z,50.10
2018-04-23T02:25:38.950Z,49.80
2018-04-23T02:28:07.223Z,50.00
2018-04-23T02:30:35.470Z,50.00
2018-04-23T02:33:04.493Z,50.00
2018-04-23T02:35:32.741Z,50.00
2018-04-23T02:38:01.780Z,50.20
2018-04-23T02:40:30.014Z,50.20
2018-04-23T02:42:58.282Z,50.20
2018-04-23T02:45:27.312Z,50.20
2018-04-23T02:47:55.583Z,50.20
2018-04-23T02:50:23.838Z,50.50
2018-04-23T02:52:52.100Z,51.00
2018-04-23T02:55:21.139Z,50.60
2018-04-23T02:57:49.411Z,50.50
2018-04-23T03:00:17.663Z,50.30
2018-04-23T03:02:45.918Z,50.20
2018-04-23T03:05:14.951Z,50.10
2018-04-23T03:07:43.203Z,50.10
2018-04-23T03:10:12.218Z,50.00
2018-04-23T03:12:40.465Z,50.00
2018-04-23T03:15:09.505Z,50.20
2018-04-23T03:17:37.783Z,50.10
2018-04-23T03:20:06.043Z,50.20
2018-04-23T03:22:34.297Z,50.30
2018-04-23T03:25:02.552Z,50.30
2018-04-23T03:27:31.586Z,49.90
2018-04-23T03:29:59.835Z,49.80
2018-04-23T03:32:28.863Z,49.80
2018-04-23T03:34:57.103Z,49.70
2018-04-23T03:37:26.127Z,50.30
2018-04-23T03:39:54.373Z,50.30
2018-04-23T03:42:23.405Z,50.00
2018-04-23T03:44:51.658Z,50.00
2018-04-23T03:47:19.932Z,50.20
2018-04-23T03:49:48.171Z,50.30
2018-04-23T03:52:16.417Z,50.60
2018-04-23T03:54:44.693Z,50.40
2018-04-23T03:57:12.962Z,49.90
2018-04-23T03:59:41.215Z,50.30
2018-04-23T04:02:09.480Z,50.20
2018-04-23T04:04:38.512Z,50.00
2018-04-23T04:07:06.770Z,50.00
2018-04-23T04:09:35.024Z,50.20
2018-04-23T04:12:15.198Z,50.00
2018-04-23T04:14:55.230Z,49.80
2018-04-23T04:20:35.124Z,50.10
2018-04-23T04:23:03.383Z,50.10
2018-04-23T04:25:31.679Z,50.10
2018-04-23T04:27:59.954Z,50.20
2018-04-23T04:30:28.232Z,50.20
2018-04-23T04:32:56.491Z,50.20
2018-04-23T04:35:24.798Z,50.40
2018-04-23T04:37:52.991Z,49.80
2018-04-23T04:40:21.251Z,50.50
2018-04-23T04:42:49.530Z,50.10
2018-04-23T04:45:17.814Z,50.00
2018-04-23T04:47:46.053Z,50.50
2018-04-23T04:50:14.325Z,50.60
2018-04-23T04:52:42.577Z,50.60
2018-04-23T04:55:11.594Z,51.10
2018-04-23T04:57:39.850Z,51.00
2018-04-23T05:00:08.899Z,50.90
2018-04-23T05:02:37.162Z,50.80
2018-04-23T05:05:05.393Z,50.80
2018-04-23T05:07:34.410Z,50.40
2018-04-23T05:10:02.657Z,50.40
2018-04-23T05:12:31.720Z,50.90
2018-04-23T05:14:59.977Z,50.80
2018-04-23T05:17:28.250Z,51.00
2018-04-23T05:19:56.498Z,51.30
2018-04-23T05:22:24.769Z,50.90
2018-04-23T05:24:53.795Z,50.70
2018-04-23T05:27:22.050Z,50.60
2018-04-23T05:29:50.303Z,50.50
2018-04-23T05:32:19.335Z,50.50
2018-04-23T05:34:47.587Z,50.40
2018-04-23T05:37:16.613Z,50.30
2018-04-23T05:39:44.850Z,50.30
2018-04-23T05:42:13.907Z,49.20
2018-04-23T05:44:42.156Z,49.20
2018-04-23T05:47:10.409Z,49.70
2018-04-23T05:49:38.699Z,49.30
2018-04-23T05:52:06.953Z,49.40
2018-04-23T05:54:35.240Z,49.10
2018-04-23T05:57:03.481Z,49.20
2018-04-23T05:59:31.723Z,48.80
2018-04-23T06:02:00.007Z,49.50
2018-04-23T06:04:28.267Z,49.50
2018-04-23T06:06:56.562Z,49.70
2018-04-23T06:09:24.839Z,50.20
2018-04-23T06:11:53.107Z,49.40
2018-04-23T06:14:21.430Z,49.70
2018-04-23T06:16:49.635Z,49.80
2018-04-23T06:19:17.890Z,50.00
2018-04-23T06:21:46.918Z,50.20
2018-04-23T06:24:15.161Z,50.20
2018-04-23T06:26:43.434Z,50.20
2018-04-23T06:29:12.460Z,50.10
2018-04-23T06:31:40.759Z,50.00
2018-04-23T06:34:09.004Z,50.50
2018-04-23T06:36:37.313Z,50.20
2018-04-23T06:39:06.494Z,50.20
2018-04-23T06:41:34.784Z,50.60
2018-04-23T06:44:03.042Z,50.00
2018-04-23T06:46:31.321Z,50.40
2018-04-23T06:48:59.692Z,50.20
2018-04-23T06:51:27.983Z,50.00
2018-04-23T06:53:56.254Z,50.50
2018-04-23T06:56:24.522Z,50.30
2018-04-23T06:58:53.234Z,49.80
2018-04-23T07:01:22.254Z,49.70
2018-04-23T07:03:50.579Z,49.50
2018-04-23T07:06:19.249Z,49.00
2018-04-23T07:08:47.539Z,49.20
2018-04-23T07:11:15.802Z,48.60
2018-04-23T07:13:44.068Z,47.40
2018-04-23T07:16:13.088Z,46.50
2018-04-23T07:18:41.336Z,46.50
2018-04-23T07:21:09.607Z,47.60
2018-04-23T07:23:37.888Z,48.40
2018-04-23T07:26:06.913Z,47.90
2018-04-23T07:28:35.198Z,47.80
2018-04-23T07:31:03.497Z,44.00
2018-04-23T07:33:31.774Z,40.80
2018-04-23T07:36:00.027Z,39.60
2018-04-23T07:38:28.290Z,40.40
2018-04-23T07:40:56.618Z,42.00
2018-04-23T07:43:24.853Z,43.00
2018-04-23T07:45:53.149Z,44.30
2018-04-23T07:48:22.187Z,46.00
2018-04-23T07:50:51.253Z,47.40
2018-04-23T07:53:19.530Z,47.30
2018-04-23T07:55:47.821Z,48.10
2018-04-23T07:58:16.877Z,50.30
2018-04-23T08:00:45.134Z,50.30
2018-04-23T08:03:13.433Z,51.20
2018-04-23T08:05:41.671Z,52.30
2018-04-23T08:08:09.974Z,52.80
2018-04-23T08:10:38.235Z,53.10
2018-04-23T08:13:06.534Z,52.50
2018-04-23T08:15:34.785Z,52.40
2018-04-23T08:18:03.054Z,52.50
2018-04-23T08:20:31.410Z,52.90
2018-04-23T08:23:00.419Z,56.50
2018-04-23T08:25:28.715Z,56.50
2018-04-23T08:27:56.974Z,56.50
2018-04-23T08:30:25.987Z,56.50
2018-04-23T08:32:54.969Z,56.40
2018-04-23T08:35:23.279Z,57.10
2018-04-23T08:37:51.569Z,57.50
2018-04-23T08:40:19.823Z,57.80
2018-04-23T08:42:48.125Z,60.60
2018-04-23T08:45:16.393Z,63.50
2018-04-23T08:47:44.643Z,65.50
2018-04-23T08:50:12.928Z,65.70
2018-04-23T08:52:41.206Z,66.90
2018-04-23T08:55:09.479Z,69.20
2018-04-23T08:57:37.753Z,69.30
2018-04-23T09:00:06.052Z,70.60
2018-04-23T09:02:34.256Z,69.30
2018-04-23T09:05:03.306Z,70.10
2018-04-23T09:07:31.696Z,70.00
2018-04-23T09:09:59.991Z,70.60
2018-04-23T09:12:28.260Z,69.90
2018-04-23T09:14:56.534Z,70.40
2018-04-23T09:17:25.005Z,69.80
2018-04-23T09:19:53.304Z,68.20
2018-04-23T09:22:21.601Z,69.00
2018-04-23T09:24:49.955Z,68.00
2018-04-23T09:27:18.193Z,69.30
2018-04-23T09:29:46.544Z,68.00
2018-04-23T09:32:14.814Z,67.60
2018-04-23T09:34:43.089Z,67.40
2018-04-23T09:37:11.355Z,66.40
2018-04-23T09:39:39.605Z,67.30
2018-04-23T09:42:07.884Z,68.60
2018-04-23T09:44:36.319Z,66.80
2018-04-23T09:47:04.439Z,65.30
2018-04-23T09:49:32.861Z,65.40
2018-04-23T09:52:01.887Z,63.20
2018-04-23T09:54:30.166Z,63.20
2018-04-23T09:56:58.446Z,63.10
2018-04-23T09:59:26.706Z,62.10
2018-04-23T10:01:54.960Z,61.30
2018-04-23T10:04:23.247Z,61.10
2018-04-23T10:06:51.496Z,60.20
2018-04-23T10:09:20.533Z,58.40
2018-04-23T10:11:48.839Z,58.40
2018-04-23T10:14:17.089Z,58.00
2018-04-23T10:16:45.520Z,58.30
2018-04-23T10:19:14.671Z,59.10
2018-04-23T10:21:42.897Z,59.10
2018-04-23T10:24:12.749Z,59.30
2018-04-23T10:26:41.045Z,59.20
2018-04-23T10:29:09.294Z,59.10
2018-04-23T10:31:37.602Z,60.20
2018-04-23T10:34:05.859Z,61.30
2018-04-23T10:36:34.255Z,64.50
2018-04-23T10:39:02.597Z,68.20
2018-04-23T10:41:31.622Z,68.00
2018-04-23T10:43:59.898Z,69.80
2018-04-23T10:46:28.181Z,72.70
2018-04-23T10:48:56.464Z,71.70
2018-04-23T10:51:24.724Z,74.80
2018-04-23T10:53:52.989Z,74.10
2018-04-23T10:56:21.244Z,72.70
2018-04-23T10:58:49.657Z,71.50
2018-04-23T11:01:17.901Z,72.70
2018-04-23T11:03:46.161Z,74.10
2018-04-23T11:06:15.179Z,74.00
2018-04-23T11:08:43.429Z,74.00
2018-04-23T11:11:12.331Z,74.50
2018-04-23T11:13:40.586Z,74.10
2018-04-23T11:16:09.624Z,73.80
2018-04-23T11:18:38.191Z,73.80
2018-04-23T11:21:06.472Z,74.70
2018-04-23T11:23:34.724Z,73.60
2018-04-23T11:26:03.019Z,71.90
2018-04-23T11:28:31.263Z,69.20
2018-04-23T11:31:00.314Z,70.70
2018-04-23T11:33:28.608Z,70.70
2018-04-23T11:35:56.903Z,69.50
2018-04-23T11:38:25.277Z,69.80
2018-04-23T11:40:53.546Z,69.20
2018-04-23T11:43:21.826Z,71.50
2018-04-23T11:45:50.066Z,70.90
2018-04-23T11:48:18.363Z,71.80
2018-04-23T11:50:46.622Z,71.80
2018-04-23T11:53:14.886Z,73.10
2018-04-23T11:55:43.146Z,73.40
2018-04-23T11:58:11.407Z,74.20
2018-04-23T12:00:39.774Z,74.60
2018-04-23T12:03:08.130Z,72.90
2018-04-23T12:05:36.418Z,74.50
2018-04-23T12:08:04.772Z,75.00
2018-04-23T12:10:33.172Z,75.50
2018-04-23T12:13:02.304Z,75.20
2018-04-23T12:15:31.312Z,76.40
2018-04-23T12:17:59.595Z,76.50
2018-04-23T12:20:27.835Z,77.00
2018-04-23T12:22:56.892Z,78.50
2018-04-23T12:25:25.150Z,78.50
2018-04-23T12:27:53.407Z,79.20
2018-04-23T12:30:21.658Z,80.20
2018-04-23T12:32:50.716Z,82.50
2018-04-23T12:35:19.042Z,82.40
2018-04-23T12:37:47.315Z,82.30
2018-04-23T12:40:15.642Z,82.70
2018-04-23T12:42:43.957Z,82.70
2018-04-23T12:45:12.238Z,84.50
2018-04-23T12:47:41.272Z,84.40
2018-04-23T12:50:09.556Z,84.40
2018-04-23T12:52:37.810Z,83.70
2018-04-23T12:55:06.111Z,84.70
2018-04-23T12:57:34.456Z,84.60
2018-04-23T13:00:02.748Z,86.90
2018-04-23T13:02:31.027Z,86.20
2018-04-23T13:04:59.337Z,84.30
2018-04-23T13:07:27.631Z,85.80
2018-04-23T13:09:56.657Z,85.90
2018-04-23T13:12:24.936Z,85.90
2018-04-23T13:14:53.271Z,86.20
2018-04-23T13:17:21.568Z,87.00
2018-04-23T13:19:49.807Z,86.30
2018-04-23T13:22:18.151Z,85.40
2018-04-23T13:24:46.431Z,85.60
2018-04-23T13:27:14.689Z,84.60
2018-04-23T13:29:42.953Z,84.40
2018-04-23T13:32:11.264Z,82.20
2018-04-23T13:34:39.528Z,82.10
2018-04-23T13:37:07.851Z,79.70
2018-04-23T13:39:36.123Z,81.40
2018-04-23T13:42:04.444Z,81.20
2018-04-23T13:44:33.468Z,80.80
2018-04-23T13:47:01.739Z,80.70
2018-04-23T13:49:29.980Z,80.20
2018-04-23T13:51:59.016Z,76.80
2018-04-23T13:54:27.289Z,76.70
2018-04-23T13:56:55.562Z,73.80
2018-04-23T13:59:23.859Z,75.70
2018-04-23T14:01:52.144Z,74.20
2018-04-23T14:04:20.487Z,72.00
2018-04-23T14:06:48.905Z,72.30
2018-04-23T14:09:17.788Z,71.60
2018-04-23T14:11:46.060Z,72.50
2018-04-23T14:14:14.307Z,73.20
2018-04-23T14:16:42.617Z,73.30
2018-04-23T14:19:10.898Z,71.30
2018-04-23T14:21:39.154Z,73.10
2018-04-23T14:24:07.516Z,71.80
2018-04-23T14:26:36.629Z,71.00
2018-04-23T14:29:04.924Z,71.30
2018-04-23T14:31:33.202Z,69.80
2018-04-23T14:34:01.607Z,71.40
2018-04-23T14:36:29.881Z,72.30
2018-04-23T14:38:58.150Z,71.10
2018-04-23T14:41:26.489Z,71.60
2018-04-23T14:43:54.787Z,70.90
2018-04-23T14:46:23.083Z,70.20
2018-04-23T14:48:51.385Z,70.50
2018-04-23T14:51:20.395Z,71.50
2018-04-23T14:53:48.682Z,71.50
2018-04-23T14:56:16.959Z,72.80
2018-04-23T14:58:45.260Z,73.90
2018-04-23T15:01:13.492Z,73.20
2018-04-23T15:03:41.779Z,72.40
2018-04-23T15:06:10.122Z,71.90
2018-04-23T15:08:38.710Z,71.60
2018-04-23T15:11:07.738Z,72.00
2018-04-23T15:13:36.032Z,72.00
2018-04-23T15:16:04.274Z,72.40
2018-04-23T15:18:32.527Z,72.50
2018-04-23T15:21:01.593Z,73.30
2018-04-23T15:23:29.852Z,73.30
2018-04-23T15:25:58.131Z,73.30
2018-04-23T15:28:26.382Z,72.70
2018-04-23T15:30:54.651Z,72.80
2018-04-23T15:33:23.068Z,73.30
2018-04-23T15:35:51.317Z,73.40
2018-04-23T15:38:19.580Z,74.20
2018-04-23T15:40:47.885Z,74.00
2018-04-23T15:43:16.162Z,74.20
2018-04-23T15:45:44.423Z,74.10
2018-04-23T15:48:12.702Z,74.30
2018-04-23T15:50:40.968Z,75.00
2018-04-23T15:53:09.256Z,76.00
2018-04-23T15:55:37.526Z,75.70
2018-04-23T15:58:05.829Z,74.90
2018-04-23T16:00:34.843Z,76.40
2018-04-23T16:03:03.120Z,76.30
2018-04-23T16:05:31.367Z,75.00
2018-04-23T16:08:00.410Z,75.30
2018-04-23T16:10:29.483Z,76.40
2018-04-23T16:12:57.851Z,76.30
2018-04-23T16:15:26.105Z,75.40
2018-04-23T16:17:54.355Z,76.20
2018-04-23T16:20:22.661Z,75.30
2018-04-23T16:22:50.911Z,75.80
2018-04-23T16:25:19.212Z,75.70
2018-04-23T16:27:47.474Z,75.40
2018-04-23T16:30:15.779Z,76.20
2018-04-23T16:32:44.046Z,75.20
2018-04-23T16:35:12.329Z,76.20
2018-04-23T16:37:40.592Z,76.00
2018-04-23T16:40:08.869Z,75.50
2018-04-23T16:42:37.365Z,75.10
2018-04-23T16:45:05.613Z,75.20
2018-04-23T16:47:33.887Z,74.90
2018-04-23T16:50:02.135Z,74.60
2018-04-23T16:52:31.178Z,73.30
2018-04-23T16:54:59.615Z,73.20
2018-04-23T16:57:28.760Z,74.00
2018-04-23T16:59:57.022Z,74.00
2018-04-23T17:02:25.307Z,73.30
2018-04-23T17:04:53.586Z,73.00
2018-04-23T17:07:21.864Z,73.20
2018-04-23T17:09:50.165Z,73.20
2018-04-23T17:12:18.410Z,73.80
2018-04-23T17:14:46.696Z,73.20
2018-04-23T17:17:14.964Z,73.20
2018-04-23T17:19:44.022Z,74.40
2018-04-23T17:22:12.397Z,73.70
2018-04-23T17:24:41.557Z,73.90
2018-04-23T17:27:09.838Z,73.90
2018-04-23T17:29:38.123Z,73.50
2018-04-23T17:32:07.143Z,74.10
2018-04-23T17:34:35.418Z,73.30
2018-04-23T17:37:03.683Z,73.40
2018-04-23T17:39:32.721Z,74.10
2018-04-23T17:42:00.991Z,74.10
2018-04-23T17:44:29.271Z,73.90
2018-04-23T17:46:58.157Z,72.80
2018-04-23T17:49:26.404Z,72.40
2018-04-23T17:51:55.449Z,72.90
2018-04-23T17:54:23.715Z,73.00
2018-04-23T17:56:51.977Z,72.60
2018-04-23T17:59:20.237Z,72.10
2018-04-23T18:01:49.465Z,71.90
2018-04-23T18:04:17.763Z,71.80
2018-04-23T18:06:46.017Z,72.70
2018-04-23T18:09:14.321Z,72.40
2018-04-23T18:11:42.596Z,72.40
2018-04-23T18:14:10.855Z,72.20
2018-04-23T18:16:39.134Z,72.90
2018-04-23T18:19:08.857Z,72.40
2018-04-23T18:21:37.159Z,72.70
2018-04-23T18:24:06.213Z,72.80
2018-04-23T18:26:34.479Z,72.80
2018-04-23T18:29:02.755Z,73.50
2018-04-23T18:31:31.074Z,72.90
2018-04-23T18:33:59.345Z,72.80
2018-04-23T18:36:27.601Z,72.80
2018-04-23T18:38:55.895Z,73.20
2018-04-23T18:41:24.247Z,73.80
2018-04-23T18:43:52.530Z,74.20
2018-04-23T18:46:21.750Z,74.10
2018-04-23T18:48:50.033Z,74.10
2018-04-23T18:51:18.357Z,74.40
2018-04-23T18:53:46.677Z,73.60
2018-04-23T18:56:15.033Z,74.50
2018-04-23T18:58:43.318Z,74.60
2018-04-23T19:01:11.648Z,74.20
2018-04-23T19:03:40.684Z,75.10
2018-04-23T19:06:08.978Z,75.10
2018-04-23T19:08:38.128Z,75.10
2018-04-23T19:11:06.429Z,74.40
2018-04-23T19:13:34.767Z,74.60
2018-04-23T19:16:03.863Z,74.60
2018-04-23T19:18:32.156Z,74.60
2018-04-23T19:21:00.463Z,74.40
2018-04-23T19:23:28.773Z,74.30
2018-04-23T19:25:59.197Z,75.10
2018-04-23T19:28:27.517Z,75.00
2018-04-23T19:30:55.770Z,74.80
2018-04-23T19:33:24.282Z,75.00
2018-04-23T19:35:52.589Z,74.90
2018-04-23T19:38:20.910Z,74.40
2018-04-23T19:40:49.933Z,75.40
2018-04-23T19:43:18.261Z,75.40
2018-04-23T19:45:46.571Z,75.10
2018-04-23T19:48:14.895Z,76.10
2018-04-23T19:50:43.148Z,75.40
2018-04-23T19:53:11.438Z,75.50
2018-04-23T19:55:39.806Z,75.40
2018-04-23T19:58:08.125Z,75.60
2018-04-23T20:00:36.452Z,75.80
2018-04-23T20:03:05.508Z,76.00
2018-04-23T20:05:34.561Z,76.10
2018-04-23T20:08:02.845Z,76.00
2018-04-23T20:10:31.126Z,75.90
2018-04-23T20:12:59.390Z,76.00
2018-04-23T20:15:28.587Z,75.90
2018-04-23T20:17:56.899Z,76.30
2018-04-23T20:20:25.168Z,76.30
2018-04-23T20:22:53.467Z,77.00
2018-04-23T20:25:22.519Z,77.10
2018-04-23T20:27:50.756Z,77.10
2018-04-23T20:30:19.070Z,77.20
2018-04-23T20:32:47.455Z,76.60
2018-04-23T20:35:15.724Z,77.00
2018-04-23T20:37:44.005Z,77.40
2018-04-23T20:40:12.349Z,77.70
2018-04-23T20:42:40.641Z,77.30
2018-04-23T20:45:08.927Z,77.70
2018-04-23T20:47:37.208Z,77.50
2018-04-23T20:50:05.504Z,77.80
2018-04-23T20:52:33.804Z,77.70
2018-04-23T20:55:02.847Z,78.10
2018-04-23T20:57:31.178Z,78.10
2018-04-23T20:59:59.427Z,78.40
2018-04-23T21:02:27.755Z,78.70
2018-04-23T21:04:56.103Z,78.60
2018-04-23T21:07:24.385Z,79.00
2018-04-23T21:09:52.662Z,79.40
2018-04-23T21:12:20.903Z,79.00
2018-04-23T21:14:49.189Z,79.10
2018-04-23T21:17:17.469Z,78.70
2018-04-23T21:19:46.240Z,78.90
2018-04-23T21:22:14.582Z,78.80
2018-04-23T21:24:42.867Z,78.90
2018-04-23T21:27:11.138Z,79.00
2018-04-23T21:29:39.439Z,79.20
2018-04-23T21:32:07.713Z,79.10
2018-04-23T21:34:35.965Z,79.30
2018-04-23T21:37:04.293Z,79.40
2018-04-23T21:39:32.541Z,79.00
2018-04-23T21:42:00.835Z,79.10
2018-04-23T21:44:29.087Z,79.30
2018-04-23T21:46:57.383Z,79.80
2018-04-23T21:49:26.731Z,79.70
2018-04-23T21:51:55.009Z,79.60
2018-04-23T21:54:23.271Z,80.10
2018-04-23T21:56:52.347Z,80.50
2018-04-23T21:59:21.386Z,80.50
2018-04-23T22:01:49.672Z,80.40
2018-04-23T22:04:18.016Z,81.10
2018-04-23T22:06:47.052Z,81.20
2018-04-23T22:09:15.309Z,81.10
2018-04-23T22:11:44.125Z,81.00
2018-04-23T22:14:13.117Z,80.70
2018-04-23T22:16:41.394Z,81.10
2018-04-23T22:19:09.669Z,81.60
2018-04-23T22:21:38.059Z,81.30
2018-04-23T22:24:06.326Z,81.50
2018-04-23T22:26:34.586Z,81.00
2018-04-23T22:29:02.855Z,81.00
2018-04-23T22:31:31.112Z,81.50
2018-04-23T22:33:59.375Z,82.30
2018-04-23T22:36:27.638Z,82.00
2018-04-23T22:38:56.670Z,82.20
2018-04-23T22:41:24.951Z,82.20
2018-04-23T22:43:53.223Z,82.20
2018-04-23T22:46:21.518Z,81.90
2018-04-23T22:48:49.793Z,82.50
2018-04-23T22:51:18.067Z,82.20
2018-04-23T22:53:46.340Z,82.20
2018-04-23T22:56:14.596Z,82.40
2018-04-23T22:58:42.881Z,82.80
2018-04-23T23:01:11.204Z,82.70
2018-04-23T23:03:39.430Z,82.70
2018-04-23T23:06:07.717Z,82.90
2018-04-23T23:08:35.987Z,83.10
2018-04-23T23:11:04.315Z,83.00
2018-04-23T23:13:32.558Z,83.00
2018-04-23T23:16:00.873Z,83.20
2018-04-23T23:18:29.350Z,83.20
2018-04-23T23:20:57.637Z,83.20
2018-04-23T23:23:25.871Z,83.30
2018-04-23T23:25:54.151Z,83.60
2018-04-23T23:28:22.414Z,83.30
2018-04-23T23:30:50.719Z,83.40
2018-04-23T23:33:18.988Z,83.40
2018-04-23T23:35:47.296Z,83.20
2018-04-23T23:38:15.556Z,83.40
2018-04-23T23:40:43.936Z,83.50
2018-04-23T23:43:12.177Z,83.90
2018-04-23T23:45:40.459Z,83.70
2018-04-23T23:48:08.715Z,83.70
2018-04-23T23:50:37.195Z,83.70
2018-04-23T23:53:05.463Z,84.10
2018-04-23T23:55:33.711Z,83.90
2018-04-23T23:58:02.773Z,84.30
